createdAt,value
2022-10-30T00:01:55.037Z,99539.19
2022-10-30T00:06:58.002Z,99533.56
2022-10-30T00:12:01.344Z,99524.25
2022-10-30T00:17:05.650Z,99530.81
2022-10-30T00:27:10.370Z,99525.31
2022-10-30T00:32:14.643Z,99522.41
2022-10-30T00:37:19.429Z,99513.50
2022-10-30T00:42:22.440Z,99517.09
2022-10-30T00:47:31.493Z,99505.75
2022-10-30T00:52:38.666Z,99508.75
2022-10-30T00:57:42.912Z,99505.75
2022-10-30T01:02:47.393Z,99505.25
2022-10-30T01:07:50.364Z,99494.59
2022-10-30T01:12:56.665Z,99495.88
2022-10-30T01:18:19.014Z,99487.44
2022-10-30T01:23:35.135Z,99487.81
2022-10-30T01:28:52.213Z,99472.09
2022-10-30T01:34:05.728Z,99469.06
2022-10-30T01:39:15.020Z,99459.22
2022-10-30T01:44:21.390Z,99460.50
2022-10-30T01:49:48.701Z,99466.41
2022-10-30T01:55:00.139Z,99464.22
2022-10-30T02:00:06.297Z,99468.69
2022-10-30T02:05:37.345Z,99468.25
2022-10-30T02:10:41.082Z,99466.25
2022-10-30T02:15:46.343Z,99464.91
2022-10-30T02:20:50.637Z,99468.53
2022-10-30T02:25:53.748Z,99461.06
2022-10-30T02:30:56.813Z,99453.00
2022-10-30T02:36:02.161Z,99451.00
2022-10-30T02:41:05.185Z,99450.81
2022-10-30T02:46:08.281Z,99451.00
2022-10-30T02:51:12.944Z,99444.97
2022-10-30T02:56:16.922Z,99444.72
2022-10-30T03:01:20.943Z,99449.16
2022-10-30T03:06:26.161Z,99450.56
2022-10-30T03:11:29.124Z,99437.00
2022-10-30T03:16:33.617Z,99448.38
2022-10-30T03:21:37.956Z,99437.63
2022-10-30T03:26:40.912Z,99434.75
2022-10-30T03:31:45.126Z,99443.88
2022-10-30T03:37:11.782Z,99447.88
2022-10-30T03:42:15.363Z,99466.31
2022-10-30T03:47:19.204Z,99457.09
2022-10-30T03:52:23.878Z,99440.69
2022-10-30T03:57:28.079Z,99430.75
2022-10-30T04:02:48.502Z,99446.22
2022-10-30T04:07:58.766Z,99447.94
2022-10-30T04:13:03.124Z,99438.16
2022-10-30T04:18:07.156Z,99434.22
2022-10-30T04:23:15.544Z,99431.59
2022-10-30T04:28:18.684Z,99423.94
2022-10-30T04:33:22.850Z,99415.44
2022-10-30T04:38:28.040Z,99422.34
2022-10-30T04:43:32.815Z,99419.97
2022-10-30T04:48:37.233Z,99414.56
2022-10-30T04:53:42.368Z,99408.72
2022-10-30T04:58:48.634Z,99402.28
2022-10-30T05:03:54.623Z,99405.91
2022-10-30T05:08:59.623Z,99407.53
2022-10-30T05:14:12.434Z,99405.13
2022-10-30T05:19:15.366Z,99403.53
2022-10-30T05:24:27.701Z,99413.59
2022-10-30T05:29:30.977Z,99406.94
2022-10-30T05:34:34.384Z,99405.53
2022-10-30T05:39:38.748Z,99416.44
2022-10-30T05:45:01.030Z,99409.56
2022-10-30T05:50:07.530Z,99409.34
2022-10-30T05:55:14.586Z,99408.53
2022-10-30T06:00:28.328Z,99414.41
2022-10-30T06:05:33.262Z,99410.81
2022-10-30T06:10:39.235Z,99410.34
2022-10-30T06:15:56.258Z,99409.16
2022-10-30T06:21:01.014Z,99397.34
2022-10-30T06:26:25.665Z,99411.69
2022-10-30T06:31:31.775Z,99408.59
2022-10-30T06:36:36.686Z,99415.50
2022-10-30T06:41:41.962Z,99429.00
2022-10-30T06:46:57.135Z,99438.97
2022-10-30T06:52:00.124Z,99441.06
2022-10-30T06:57:04.529Z,99440.28
2022-10-30T07:02:26.272Z,99439.63
2022-10-30T07:07:36.119Z,99446.03
2022-10-30T07:12:40.680Z,99439.56
2022-10-30T07:17:57.418Z,99441.88
2022-10-30T07:23:01.712Z,99444.63
2022-10-30T07:28:06.493Z,99454.22
2022-10-30T07:33:17.471Z,99452.03
2022-10-30T07:38:40.054Z,99446.22
2022-10-30T07:43:59.071Z,99447.19
2022-10-30T07:49:19.843Z,99449.84
2022-10-30T07:54:29.511Z,99455.22
2022-10-30T07:59:39.051Z,99450.50
2022-10-30T08:05:17.016Z,99442.81
2022-10-30T08:10:40.965Z,99435.50
2022-10-30T08:15:45.680Z,99437.81
2022-10-30T08:20:50.706Z,99447.03
2022-10-30T08:26:00.291Z,99447.50
2022-10-30T08:31:06.159Z,99435.88
2022-10-30T08:36:27.856Z,99431.31
2022-10-30T08:41:31.134Z,99431.78
2022-10-30T08:46:35.560Z,99426.69
2022-10-30T08:51:38.529Z,99425.53
2022-10-30T08:56:42.080Z,99434.38
2022-10-30T09:01:51.115Z,99428.28
2022-10-30T09:06:57.147Z,99408.19
2022-10-30T09:12:37.928Z,99414.22
2022-10-30T09:17:42.607Z,99436.69
2022-10-30T09:22:45.544Z,99421.00
2022-10-30T09:27:48.518Z,99421.53
2022-10-30T09:32:59.008Z,99431.88
2022-10-30T09:38:21.993Z,99436.31
2022-10-30T09:43:37.551Z,99445.66
2022-10-30T09:48:54.714Z,99442.19
2022-10-30T09:54:12.399Z,99445.41
2022-10-30T09:59:36.356Z,99438.66
2022-10-30T10:04:45.277Z,99433.63
2022-10-30T10:09:50.598Z,99435.22
2022-10-30T10:15:24.974Z,99433.69
2022-10-30T10:20:33.430Z,99421.16
2022-10-30T10:25:39.299Z,99422.56
2022-10-30T10:30:51.370Z,99424.66
2022-10-30T10:36:07.285Z,99425.75
2022-10-30T10:41:19.789Z,99426.00
2022-10-30T10:46:35.896Z,99431.06
2022-10-30T10:51:43.169Z,99429.72
2022-10-30T10:56:49.543Z,99419.28
2022-10-30T11:02:01.573Z,99424.63
2022-10-30T11:07:18.318Z,99422.53
2022-10-30T11:12:28.544Z,99423.31
2022-10-30T11:17:43.353Z,99410.38
2022-10-30T11:22:51.581Z,99411.59
2022-10-30T11:27:56.829Z,99407.50
2022-10-30T11:33:00.730Z,99404.03
2022-10-30T11:38:20.744Z,99401.03
2022-10-30T11:43:25.553Z,99399.63
2022-10-30T11:48:31.707Z,99389.97
2022-10-30T11:53:40.149Z,99406.53
2022-10-30T11:58:47.090Z,99399.56
2022-10-30T12:03:50.334Z,99390.50
2022-10-30T12:09:03.234Z,99395.94
2022-10-30T12:14:06.964Z,99385.59
2022-10-30T12:19:15.428Z,99384.84
2022-10-30T12:24:22.697Z,99388.63
2022-10-30T12:30:02.728Z,99388.16
2022-10-30T12:35:03.540Z,99377.91
2022-10-30T12:40:14.215Z,99386.50
2022-10-30T12:45:21.910Z,99381.16
2022-10-30T12:50:28.429Z,99383.91
2022-10-30T12:55:37.770Z,99370.78
2022-10-30T13:00:47.141Z,99369.16
2022-10-30T13:05:54.844Z,99364.84
2022-10-30T13:11:05.242Z,99362.81
2022-10-30T13:16:14.126Z,99363.00
2022-10-30T13:21:24.768Z,99360.66
2022-10-30T13:26:37.290Z,99358.53
2022-10-30T13:31:52.469Z,99352.84
2022-10-30T13:37:03.408Z,99358.72
2022-10-30T13:42:31.253Z,99351.41
2022-10-30T13:47:44.227Z,99351.13
2022-10-30T13:52:56.385Z,99350.91
2022-10-30T13:58:06.771Z,99344.63
2022-10-30T14:03:24.067Z,99353.44
2022-10-30T14:08:36.670Z,99355.13
2022-10-30T14:13:54.171Z,99350.63
2022-10-30T14:19:01.733Z,99352.81
2022-10-30T14:24:11.371Z,99345.63
2022-10-30T14:29:42.841Z,99352.78
2022-10-30T14:34:47.875Z,99354.38
2022-10-30T14:39:52.210Z,99352.47
2022-10-30T14:45:10.813Z,99361.78
2022-10-30T14:50:23.464Z,99369.72
2022-10-30T14:55:32.036Z,99365.34
2022-10-30T15:00:43.908Z,99368.00
2022-10-30T15:05:53.693Z,99367.88
2022-10-30T15:11:14.052Z,99367.56
2022-10-30T15:16:23.941Z,99361.13
2022-10-30T15:21:29.741Z,99371.91
2022-10-30T15:26:36.871Z,99370.22
2022-10-30T15:31:41.147Z,99373.22
2022-10-30T15:36:44.079Z,99378.91
2022-10-30T15:41:49.851Z,99373.97
2022-10-30T15:46:56.476Z,99383.84
2022-10-30T15:52:00.815Z,99388.97
2022-10-30T15:57:49.413Z,99383.34
2022-10-30T16:02:28.412Z,99381.34
2022-10-30T16:07:32.385Z,99389.13
2022-10-30T16:12:36.297Z,99386.38
2022-10-30T16:17:40.670Z,99387.00
2022-10-30T16:22:43.825Z,99390.59
2022-10-30T16:27:47.283Z,99394.28
2022-10-30T16:32:54.677Z,99388.13
2022-10-30T16:37:58.236Z,99395.59
2022-10-30T16:43:03.383Z,99393.41
2022-10-30T16:53:23.351Z,99392.50
2022-10-30T16:58:30.280Z,99399.53
2022-10-30T17:03:38.224Z,99392.91
2022-10-30T17:08:43.885Z,99397.84
2022-10-30T17:13:59.002Z,99399.59
2022-10-30T17:19:39.702Z,99399.25
2022-10-30T17:24:42.900Z,99402.09
2022-10-30T17:29:46.316Z,99404.91
2022-10-30T17:35:00.527Z,99417.09
2022-10-30T17:40:03.789Z,99412.38
2022-10-30T17:45:10.395Z,99420.75
2022-10-30T17:50:14.739Z,99416.44
2022-10-30T17:55:26.522Z,99418.38
2022-10-30T18:00:29.443Z,99422.28
2022-10-30T18:05:36.191Z,99418.28
2022-10-30T18:10:39.183Z,99416.09
2022-10-30T18:15:45.254Z,99417.78
2022-10-30T18:20:49.514Z,99418.75
2022-10-30T18:25:52.674Z,99416.41
2022-10-30T18:30:58.518Z,99424.88
2022-10-30T18:36:02.802Z,99427.91
2022-10-30T18:41:06.161Z,99425.06
2022-10-30T18:46:11.442Z,99423.78
2022-10-30T18:51:19.154Z,99421.38
2022-10-30T18:56:26.683Z,99417.56
2022-10-30T19:01:30.820Z,99410.88
2022-10-30T19:06:37.588Z,99415.31
2022-10-30T19:11:44.168Z,99411.88
2022-10-30T19:16:47.561Z,99414.38
2022-10-30T19:21:52.953Z,99410.75
2022-10-30T19:26:56.062Z,99408.53
2022-10-30T19:31:58.944Z,99424.66
2022-10-30T19:37:03.227Z,99420.44
2022-10-30T19:42:06.167Z,99416.69
2022-10-30T19:47:10.192Z,99420.63
2022-10-30T19:52:16.080Z,99424.97
2022-10-30T19:57:19.295Z,99429.91
2022-10-30T20:02:22.600Z,99439.63
2022-10-30T20:07:27.025Z,99429.41
2022-10-30T20:12:29.945Z,99432.88
2022-10-30T20:17:32.867Z,99433.91
2022-10-30T20:22:37.207Z,99429.69
2022-10-30T20:27:41.232Z,99433.50
2022-10-30T20:32:44.241Z,99439.53
2022-10-30T20:38:01.501Z,99434.34
2022-10-30T20:43:04.440Z,99436.38
2022-10-30T20:48:07.461Z,99442.88
2022-10-30T20:53:14.521Z,99435.88
2022-10-30T20:58:17.951Z,99440.03
2022-10-30T21:03:20.834Z,99450.44
2022-10-30T21:08:25.206Z,99447.88
2022-10-30T21:13:28.619Z,99451.34
2022-10-30T21:18:32.478Z,99449.69
2022-10-30T21:23:36.829Z,99452.22
2022-10-30T21:28:40.222Z,99459.03
2022-10-30T21:33:43.322Z,99458.34
2022-10-30T21:38:48.092Z,99458.50
2022-10-30T21:43:52.274Z,99455.47
2022-10-30T21:48:55.498Z,99459.75
2022-10-30T21:54:00.013Z,99449.38
2022-10-30T21:59:04.738Z,99464.88
2022-10-30T22:04:09.657Z,99468.09
2022-10-30T22:09:16.691Z,99450.41
2022-10-30T22:14:19.581Z,99456.69
2022-10-30T22:19:22.497Z,99462.44
2022-10-30T22:24:26.827Z,99458.44
2022-10-30T22:29:29.725Z,99464.41
2022-10-30T22:34:32.715Z,99470.31
2022-10-30T22:39:36.993Z,99472.97
2022-10-30T22:44:39.931Z,99475.59
2022-10-30T22:49:42.811Z,99473.78
2022-10-30T22:54:47.079Z,99486.09
2022-10-30T22:59:49.949Z,99478.44
2022-10-30T23:04:52.902Z,99475.44
2022-10-30T23:09:57.149Z,99474.41
2022-10-30T23:15:00.015Z,99484.22
2022-10-30T23:20:02.946Z,99486.31
2022-10-30T23:25:07.662Z,99495.66
2022-10-30T23:30:12.010Z,99497.56
2022-10-30T23:35:15.011Z,99493.09
2022-10-30T23:40:19.289Z,99488.94
2022-10-30T23:45:22.841Z,99490.28
2022-10-30T23:50:25.827Z,99493.00
2022-10-30T23:55:30.119Z,99490.81
